Time;durP1;ratioP1;P1;durP2;ratioP2;P2;SDS_P1;SDS_P2;PMS_P1;PMS_P2;Temp;Humidity;BMP_temperature;BMP_pressure;BME280_temperature;BME280_humidity;BME280_pressure;Samples;Min_cycle;Max_cycle;Signal;HPM_P1;HPM_P2
2023/05/10 00:01:07;;;;;;;0.80;0.80;;;;;;;13.88;100.00;97499.69;5072048;28;20724;-87
2023/05/10 00:03:33;;;;;;;0.80;0.80;;;;;;;13.71;100.00;97500.38;5072801;28;20210;-89
2023/05/10 00:06:00;;;;;;;2.30;0.70;;;;;;;13.64;100.00;97499.28;5072223;28;20216;-89
2023/05/10 00:08:26;;;;;;;1.33;0.70;;;;;;;13.56;100.00;97507.13;5072636;28;20204;-89
2023/05/10 00:10:53;;;;;;;0.93;0.60;;;;;;;13.46;100.00;97506.25;5071994;28;20233;-89
2023/05/10 00:13:22;;;;;;;0.50;0.40;;;;;;;13.37;100.00;97512.38;5072372;28;20594;-88
2023/05/10 00:15:48;;;;;;;0.73;0.73;;;;;;;13.32;100.00;97510.16;5072096;28;20596;-89
2023/05/10 00:18:15;;;;;;;0.60;0.50;;;;;;;13.31;100.00;97513.78;5072384;28;20234;-87
2023/05/10 00:20:41;;;;;;;0.60;0.60;;;;;;;13.28;100.00;97510.56;5071655;28;20315;-87
2023/05/10 00:23:08;;;;;;;0.30;0.30;;;;;;;13.24;100.00;97514.47;5072051;28;20204;-87
2023/05/10 00:25:34;;;;;;;0.30;0.30;;;;;;;13.22;100.00;97508.47;5072097;28;20208;-87
2023/05/10 00:28:01;;;;;;;1.17;0.30;;;;;;;13.23;100.00;97507.47;5072297;28;20230;-87
2023/05/10 00:30:29;;;;;;;1.87;0.50;;;;;;;13.22;100.00;97501.34;5071609;28;20239;-90
2023/05/10 00:32:56;;;;;;;0.40;0.40;;;;;;;13.15;100.00;97494.91;5072008;28;20212;-87
2023/05/10 00:35:22;;;;;;;2.30;0.53;;;;;;;13.14;100.00;97508.31;5071684;28;20318;-87
2023/05/10 00:37:49;;;;;;;3.83;0.50;;;;;;;13.08;100.00;97503.56;5072081;28;20216;-89
2023/05/10 00:40:16;;;;;;;1.07;0.33;;;;;;;13.03;100.00;97503.13;5071478;28;20223;-87
2023/05/10 00:42:42;;;;;;;1.13;0.40;;;;;;;12.98;100.00;97508.00;5071669;28;20234;-89
2023/05/10 00:45:09;;;;;;;0.30;0.30;;;;;;;12.98;100.00;97510.66;5071680;28;20205;-89
2023/05/10 00:47:37;;;;;;;1.23;0.37;;;;;;;12.96;100.00;97512.59;5071804;28;20216;-89
2023/05/10 00:50:08;;;;;;;0.33;0.30;;;;;;;12.94;100.00;97515.34;5071501;28;20207;-87
2023/05/10 00:52:35;;;;;;;0.60;0.50;;;;;;;12.95;100.00;97519.72;5071545;28;20268;-87
2023/05/10 00:55:03;;;;;;;0.50;0.50;;;;;;;12.93;100.00;97526.09;5072094;28;20215;-86
2023/05/10 00:57:30;;;;;;;0.50;0.50;;;;;;;12.94;100.00;97525.09;5071742;28;20212;-85
2023/05/10 00:59:57;;;;;;;0.70;0.50;;;;;;;12.87;100.00;97526.63;5071301;28;20674;-85
2023/05/10 01:02:25;;;;;;;1.17;0.40;;;;;;;12.85;100.00;97531.25;5071214;28;20589;-87
2023/05/10 01:04:54;;;;;;;0.77;0.50;;;;;;;12.80;100.00;97531.66;5071328;28;20211;-85
2023/05/10 01:07:20;;;;;;;1.47;0.60;;;;;;;12.80;100.00;97534.31;5071499;28;20643;-85
2023/05/10 01:09:47;;;;;;;0.57;0.50;;;;;;;12.77;100.00;97531.91;5071126;28;20208;-85
2023/05/10 01:12:14;;;;;;;0.83;0.43;;;;;;;12.76;100.00;97527.56;5072634;28;20231;-85
2023/05/10 01:14:41;;;;;;;2.53;0.67;;;;;;;12.79;100.00;97534.44;5071248;28;20212;-86
2023/05/10 01:17:09;;;;;;;0.60;0.60;;;;;;;12.80;100.00;97530.78;5071250;28;20257;-86
2023/05/10 01:19:37;;;;;;;0.60;0.60;;;;;;;12.76;100.00;97530.22;5071228;28;20296;-86
2023/05/10 01:22:26;;;;;;;1.00;0.67;;;;;;;12.77;100.00;97534.56;5071438;28;20228;-85
2023/05/10 01:25:20;;;;;;;1.00;0.73;;;;;;;12.75;100.00;97527.69;5072038;28;20242;-85
2023/05/10 01:28:14;;;;;;;0.80;0.80;;;;;;;12.74;100.00;97539.28;5071184;28;20683;-85
2023/05/10 01:31:04;;;;;;;0.77;0.77;;;;;;;12.74;100.00;97536.63;5070905;28;20211;-86
2023/05/10 01:33:36;;;;;;;1.10;1.00;;;;;;;12.76;100.00;97542.63;5071108;28;20211;-86
2023/05/10 01:36:07;;;;;;;1.00;1.00;;;;;;;12.79;100.00;97543.22;5070999;28;20230;-85
2023/05/10 01:38:42;;;;;;;1.30;1.20;;;;;;;12.77;100.00;97547.00;5071232;28;20216;-85
2023/05/10 01:41:16;;;;;;;1.43;1.30;;;;;;;12.78;100.00;97546.00;5070869;28;20230;-85
2023/05/10 01:43:53;;;;;;;1.00;1.00;;;;;;;12.80;100.00;97552.00;5071102;28;20705;-85
2023/05/10 01:46:28;;;;;;;1.30;1.20;;;;;;;12.78;100.00;97548.66;5071183;28;20237;-85
2023/05/10 01:48:59;;;;;;;1.93;1.10;;;;;;;12.76;100.00;97546.13;5074121;28;20208;-85
2023/05/10 01:51:30;;;;;;;1.97;1.20;;;;;;;12.69;100.00;97552.09;5074515;28;20728;-85
2023/05/10 01:54:01;;;;;;;1.30;1.20;;;;;;;12.67;100.00;97552.25;5074629;28;20209;-85
2023/05/10 01:56:30;;;;;;;2.00;1.20;;;;;;;12.63;100.00;97557.94;5074622;28;20227;-86
2023/05/10 01:58:58;;;;;;;1.90;1.20;;;;;;;12.69;100.00;97558.25;5074865;28;20244;-86
2023/05/10 02:01:26;;;;;;;2.37;1.50;;;;;;;12.69;100.00;97560.06;5074160;28;20238;-85
2023/05/10 02:03:56;;;;;;;1.20;1.10;;;;;;;12.67;100.00;97565.50;5074656;28;20285;-85
2023/05/10 02:06:25;;;;;;;1.30;1.17;;;;;;;12.65;100.00;97574.56;5074486;28;20207;-85
2023/05/10 02:08:53;;;;;;;1.53;1.43;;;;;;;12.59;100.00;97567.97;5074345;28;20222;-86
2023/05/10 02:11:21;;;;;;;1.67;1.10;;;;;;;12.54;100.00;97569.34;5074163;28;20237;-88
2023/05/10 02:13:50;;;;;;;1.27;1.10;;;;;;;12.50;100.00;97567.91;5074280;28;20210;-86
2023/05/10 02:16:17;;;;;;;2.03;1.30;;;;;;;12.49;100.00;97566.22;5074376;28;20342;-86
2023/05/10 02:18:45;;;;;;;1.40;1.30;;;;;;;12.46;100.00;97561.22;5074217;28;20264;-86
2023/05/10 02:21:15;;;;;;;2.00;1.30;;;;;;;12.45;100.00;97572.75;5073877;28;20250;-86
2023/05/10 02:23:44;;;;;;;1.50;1.40;;;;;;;12.48;100.00;97561.91;5074334;28;20215;-86
2023/05/10 02:26:13;;;;;;;1.37;1.27;;;;;;;12.45;100.00;97564.81;5074479;28;20214;-86
2023/05/10 02:28:41;;;;;;;1.30;1.20;;;;;;;12.44;100.00;97568.44;5074289;28;20204;-86
2023/05/10 02:31:09;;;;;;;1.40;1.30;;;;;;;12.45;100.00;97575.41;5073725;28;20318;-86
2023/05/10 02:33:36;;;;;;;2.03;1.13;;;;;;;12.42;100.00;97570.38;5074245;28;20211;-86
2023/05/10 02:36:05;;;;;;;1.53;1.43;;;;;;;12.42;100.00;97581.00;5073854;28;20231;-86
2023/05/10 02:38:34;;;;;;;1.40;1.20;;;;;;;12.48;100.00;97583.13;5074343;28;20229;-86
2023/05/10 02:41:02;;;;;;;1.40;1.30;;;;;;;12.49;100.00;97584.78;5073697;28;20227;-86
2023/05/10 02:43:31;;;;;;;2.10;1.30;;;;;;;12.51;100.00;97590.78;5073915;28;20204;-86
2023/05/10 02:45:58;;;;;;;1.43;1.30;;;;;;;12.55;100.00;97597.53;5073817;28;20219;-86
2023/05/10 02:48:24;;;;;;;1.40;1.30;;;;;;;12.53;100.00;97599.47;5073504;28;20209;-86
2023/05/10 02:50:53;;;;;;;1.40;1.30;;;;;;;12.54;100.00;97593.19;5073366;28;20712;-86
2023/05/10 02:53:23;;;;;;;1.50;1.30;;;;;;;12.54;100.00;97593.19;5074024;28;20212;-86
2023/05/10 02:55:57;;;;;;;1.60;1.40;;;;;;;12.56;100.00;97592.09;5073706;28;20227;-86
2023/05/10 02:58:23;;;;;;;2.27;1.50;;;;;;;12.57;100.00;97590.25;5073374;28;20228;-86
2023/05/10 03:03:21;;;;;;;2.33;1.70;;;;;;;12.62;100.00;97598.66;5052504;28;20255;-80
2023/05/10 03:05:47;;;;;;;1.63;1.53;;;;;;;12.61;100.00;97597.00;5054132;28;20218;-80
2023/05/10 03:08:14;;;;;;;2.70;1.50;;;;;;;12.59;100.00;97593.66;5053907;28;20206;-80
2023/05/10 03:10:51;;;;;;;2.17;1.67;;;;;;;12.58;100.00;97602.53;5053540;28;20208;-80
2023/05/10 03:13:29;;;;;;;1.93;1.60;;;;;;;12.57;100.00;97606.16;5034175;28;20213;-80
2023/05/10 03:16:04;;;;;;;1.60;1.50;;;;;;;12.56;100.00;97604.50;5033984;28;20260;-80
2023/05/10 03:18:38;;;;;;;6.20;1.90;;;;;;;12.54;100.00;97611.75;5033377;28;20204;-80
2023/05/10 03:21:06;;;;;;;2.20;1.90;;;;;;;12.57;100.00;97608.81;5033332;28;20209;-80
2023/05/10 03:23:36;;;;;;;3.90;1.93;;;;;;;12.60;100.00;97611.22;5033518;28;20239;-80
2023/05/10 03:26:05;;;;;;;2.33;2.13;;;;;;;12.61;100.00;97608.44;5033240;28;20208;-80
2023/05/10 03:28:35;;;;;;;2.10;1.90;;;;;;;12.66;100.00;97616.00;5033822;28;20245;-80
2023/05/10 03:31:03;;;;;;;1.80;1.70;;;;;;;12.65;100.00;97614.34;5033326;28;20212;-80
2023/05/10 03:33:30;;;;;;;2.30;1.90;;;;;;;12.67;100.00;97615.03;5033681;28;20216;-80
2023/05/10 03:35:56;;;;;;;2.90;2.10;;;;;;;12.68;100.00;97614.91;5034609;28;20213;-80
2023/05/10 03:38:23;;;;;;;2.10;1.90;;;;;;;12.69;100.00;97621.03;5039482;28;20213;-81
2023/05/10 03:40:49;;;;;;;2.17;1.97;;;;;;;12.69;100.00;97611.28;5039977;28;20208;-82
2023/05/10 03:43:16;;;;;;;2.47;2.00;;;;;;;12.69;100.00;97615.72;5040574;28;20244;-80
2023/05/10 03:45:44;;;;;;;2.10;1.90;;;;;;;12.68;100.00;97624.66;5040630;28;20209;-80
2023/05/10 03:48:10;;;;;;;2.40;2.20;;;;;;;12.66;100.00;97626.63;5041186;28;20205;-79
2023/05/10 03:50:37;;;;;;;2.80;2.13;;;;;;;12.66;100.00;97618.66;5039934;28;20208;-80
2023/05/10 03:53:03;;;;;;;2.63;2.43;;;;;;;12.65;100.00;97615.16;5041419;28;20225;-80
2023/05/10 03:55:34;;;;;;;3.10;2.70;;;;;;;12.65;100.00;97620.47;5042930;28;20211;-79
2023/05/10 03:58:00;;;;;;;3.17;2.87;;;;;;;12.62;100.00;97619.88;5042288;28;20225;-81
2023/05/10 04:00:30;;;;;;;3.07;2.67;;;;;;;12.65;100.00;97619.63;5036400;28;20217;-80
2023/05/10 04:02:57;;;;;;;3.73;3.00;;;;;;;12.67;100.00;97628.28;5032322;28;20718;-80
2023/05/10 04:05:24;;;;;;;4.10;2.87;;;;;;;12.68;100.00;97619.34;5032383;28;20209;-80
2023/05/10 04:07:50;;;;;;;3.40;3.10;;;;;;;12.68;100.00;97619.34;5032142;28;20742;-80
2023/05/10 04:10:17;;;;;;;3.10;2.80;;;;;;;12.69;100.00;97623.69;5031989;28;20215;-80
2023/05/10 04:12:44;;;;;;;3.40;3.10;;;;;;;12.71;100.00;97625.22;5032143;28;20229;-80
2023/05/10 04:15:10;;;;;;;3.27;2.60;;;;;;;12.79;100.00;97624.59;5032269;28;20230;-80
2023/05/10 04:17:37;;;;;;;3.33;2.53;;;;;;;12.82;100.00;97633.13;5032099;28;20233;-80
2023/05/10 04:20:07;;;;;;;3.00;2.40;;;;;;;12.77;100.00;97626.53;5031618;28;20217;-80
2023/05/10 04:22:33;;;;;;;3.50;2.87;;;;;;;12.76;100.00;97623.03;5032263;28;20263;-80
2023/05/10 04:25:00;;;;;;;3.47;3.13;;;;;;;12.76;100.00;97627.47;5032280;28;20211;-80
2023/05/10 04:27:26;;;;;;;3.60;2.77;;;;;;;12.73;100.00;97627.75;5032242;28;20216;-80
2023/05/10 04:29:53;;;;;;;4.57;3.23;;;;;;;12.70;100.00;97622.69;5031508;28;20267;-80
2023/05/10 04:32:20;;;;;;;3.13;2.83;;;;;;;12.70;100.00;97633.31;5031890;28;20233;-80
2023/05/10 04:34:46;;;;;;;8.43;3.77;;;;;;;12.67;100.00;97628.28;5031742;28;20216;-80
2023/05/10 04:37:14;;;;;;;3.70;3.40;;;;;;;12.67;100.00;97637.09;5031887;28;20232;-80
2023/05/10 04:39:40;;;;;;;3.90;3.47;;;;;;;12.66;100.00;97631.91;5031809;28;20214;-80
2023/05/10 04:42:07;;;;;;;4.70;3.07;;;;;;;12.67;100.00;97638.88;5031717;28;20236;-80
2023/05/10 04:44:33;;;;;;;3.27;2.90;;;;;;;12.69;100.00;97639.59;5031826;28;20215;-80
2023/05/10 04:47:02;;;;;;;3.17;2.60;;;;;;;12.72;100.00;97644.66;5031538;28;20205;-80
2023/05/10 04:49:28;;;;;;;2.47;2.10;;;;;;;12.73;100.00;97643.66;5031831;28;20217;-80
2023/05/10 04:51:55;;;;;;;5.63;2.20;;;;;;;12.79;100.00;97644.00;5031702;28;20232;-80
2023/05/10 04:54:22;;;;;;;4.40;1.80;;;;;;;12.78;100.00;97654.72;5031940;28;20399;-80
2023/05/10 04:56:49;;;;;;;2.77;2.13;;;;;;;12.80;100.00;97653.63;5031560;28;20238;-80
2023/05/10 04:59:15;;;;;;;2.00;1.80;;;;;;;12.83;100.00;97663.13;5031406;28;20217;-80
2023/05/10 05:01:42;;;;;;;2.10;1.90;;;;;;;12.86;100.00;97660.22;5031612;28;20255;-80
2023/05/10 05:04:09;;;;;;;2.40;2.17;;;;;;;12.90;100.00;97658.97;5031781;28;20584;-80
2023/05/10 05:06:35;;;;;;;1.60;1.43;;;;;;;12.96;100.00;97661.97;5031656;28;20219;-80
2023/05/10 05:09:02;;;;;;;2.30;1.80;;;;;;;13.01;100.00;97666.91;5031793;28;20567;-80
2023/05/10 05:11:30;;;;;;;1.80;1.57;;;;;;;13.06;100.00;97659.34;5031128;28;20239;-80
2023/05/10 05:13:58;;;;;;;1.83;1.73;;;;;;;13.08;100.00;97663.56;5031201;28;20205;-80
2023/05/10 05:16:25;;;;;;;3.03;2.00;;;;;;;13.18;100.00;97664.47;5031456;28;20212;-80
2023/05/10 05:18:51;;;;;;;2.00;1.80;;;;;;;13.28;100.00;97661.84;5031536;28;20209;-81
2023/05/10 05:21:19;;;;;;;1.70;1.53;;;;;;;13.36;100.00;97669.97;5031303;28;20225;-81
2023/05/10 05:23:46;;;;;;;2.73;1.90;;;;;;;13.46;100.00;97676.16;5031001;28;20213;-81
2023/05/10 05:26:12;;;;;;;1.97;1.80;;;;;;;13.61;100.00;97672.13;5030930;28;20212;-81
2023/05/10 05:28:40;;;;;;;2.17;1.90;;;;;;;13.71;100.00;97680.97;5031088;28;20590;-81
2023/05/10 05:31:09;;;;;;;3.83;2.17;;;;;;;13.82;100.00;97678.22;5030914;28;20232;-81
2023/05/10 05:33:36;;;;;;;2.10;1.80;;;;;;;13.87;100.00;97684.78;5031523;28;20213;-81
2023/05/10 05:36:03;;;;;;;2.73;1.83;;;;;;;13.93;100.00;97694.03;5031253;28;20216;-81
2023/05/10 05:38:30;;;;;;;1.77;1.67;;;;;;;13.96;100.00;97677.81;5031064;28;20234;-81
2023/05/10 05:40:56;;;;;;;2.50;2.30;;;;;;;13.99;100.00;97680.22;5030742;28;20668;-81
2023/05/10 05:43:23;;;;;;;3.03;2.00;;;;;;;13.99;100.00;97685.53;5031349;28;20212;-81
2023/05/10 05:45:53;;;;;;;3.17;1.80;;;;;;;14.00;100.00;97688.00;5031445;28;20217;-80
2023/05/10 05:48:19;;;;;;;2.03;1.93;;;;;;;14.06;100.00;97692.78;5031891;28;20216;-81
2023/05/10 05:50:46;;;;;;;2.00;1.90;;;;;;;14.11;100.00;97695.03;5031225;28;20218;-81
2023/05/10 05:53:13;;;;;;;2.17;1.97;;;;;;;14.16;100.00;97698.97;5031442;28;20587;-82
2023/05/10 05:55:39;;;;;;;3.80;1.80;;;;;;;14.25;100.00;97697.31;5031315;28;20541;-82
2023/05/10 05:58:06;;;;;;;3.07;1.80;;;;;;;14.31;100.00;97700.25;5030990;28;20261;-82
2023/05/10 06:00:32;;;;;;;1.93;1.80;;;;;;;14.33;100.00;97697.44;5030811;28;20243;-81
2023/05/10 06:03:00;;;;;;;2.00;1.90;;;;;;;14.34;100.00;97699.13;5031291;28;20246;-82
2023/05/10 06:05:27;;;;;;;2.20;2.00;;;;;;;14.34;100.00;97699.13;5031442;28;20211;-82
2023/05/10 06:07:53;;;;;;;3.30;2.17;;;;;;;14.35;100.00;97703.50;5031278;28;20212;-82
2023/05/10 06:10:20;;;;;;;2.87;2.10;;;;;;;14.43;100.00;97707.09;5030769;28;20216;-82
2023/05/10 06:12:48;;;;;;;2.43;2.00;;;;;;;14.38;100.00;97703.19;5030879;28;20237;-82
2023/05/10 06:15:14;;;;;;;2.30;2.10;;;;;;;14.34;100.00;97707.09;5030831;28;20216;-83
2023/05/10 06:17:43;;;;;;;2.90;2.20;;;;;;;14.40;100.00;97709.22;5031073;28;20230;-83
2023/05/10 06:20:12;;;;;;;2.83;2.07;;;;;;;14.46;100.00;97711.31;5030938;28;20281;-83
2023/05/10 06:22:39;;;;;;;2.33;2.13;;;;;;;14.51;100.00;97719.72;5031061;28;20238;-83
2023/05/10 06:25:06;;;;;;;2.60;2.40;;;;;;;14.49;100.00;97719.84;5030838;28;20216;-82
2023/05/10 06:27:33;;;;;;;2.97;2.37;;;;;;;14.51;100.00;97717.91;5030849;28;20206;-82
2023/05/10 06:30:00;;;;;;;2.30;2.10;;;;;;;14.55;100.00;97726.44;5030835;28;20501;-82
2023/05/10 06:32:26;;;;;;;2.57;2.37;;;;;;;14.59;100.00;97725.16;5030681;28;20236;-81
2023/05/10 06:34:53;;;;;;;2.33;2.13;;;;;;;14.65;100.00;97721.94;5033566;28;20221;-80
2023/05/10 06:37:21;;;;;;;3.57;2.10;;;;;;;14.67;100.00;97722.66;5034386;28;20231;-80
2023/05/10 06:39:47;;;;;;;2.77;2.10;;;;;;;14.68;100.00;97716.34;5033862;28;20211;-82
2023/05/10 06:42:13;;;;;;;1.90;1.80;;;;;;;14.74;100.00;97726.44;5033969;28;20229;-81
2023/05/10 06:44:40;;;;;;;3.53;2.00;;;;;;;14.83;100.00;97731.72;5034431;28;20215;-86
2023/05/10 06:47:06;;;;;;;2.40;2.20;;;;;;;14.86;100.00;97730.63;5034158;28;20214;-87
2023/05/10 06:49:33;;;;;;;1.93;1.70;;;;;;;14.81;100.00;97724.88;5033975;28;20214;-86
2023/05/10 06:51:59;;;;;;;2.53;1.67;;;;;;;14.90;100.00;97721.38;5033876;28;20321;-87
2023/05/10 06:54:27;;;;;;;1.93;1.73;;;;;;;14.86;100.00;97725.28;5034382;28;20693;-86
2023/05/10 06:56:54;;;;;;;1.60;1.47;;;;;;;14.85;100.00;97718.28;5038029;28;20213;-88
2023/05/10 06:59:21;;;;;;;2.20;1.80;;;;;;;14.83;100.00;97726.41;5035602;28;20455;-87
2023/05/10 07:01:49;;;;;;;1.40;1.30;;;;;;;14.89;100.00;97735.63;5033641;28;20327;-87
2023/05/10 07:04:17;;;;;;;1.50;1.40;;;;;;;14.97;100.00;97733.13;5033825;28;20219;-87
2023/05/10 07:06:46;;;;;;;1.70;1.60;;;;;;;15.04;100.00;97728.91;5033859;28;20217;-85
2023/05/10 07:09:13;;;;;;;1.93;1.60;;;;;;;15.15;100.00;97726.09;5033641;28;20219;-86
2023/05/10 07:11:41;;;;;;;1.87;1.63;;;;;;;15.29;100.00;97733.59;5033667;28;20248;-85
2023/05/10 07:14:07;;;;;;;1.67;1.30;;;;;;;15.39;100.00;97729.13;5033839;28;20211;-88
2023/05/10 07:16:34;;;;;;;1.50;1.40;;;;;;;15.45;100.00;97734.69;5033801;28;20574;-89
2023/05/10 07:19:00;;;;;;;3.80;1.50;;;;;;;15.49;100.00;97732.59;5033575;28;20242;-89
2023/05/10 07:21:28;;;;;;;2.33;1.50;;;;;;;15.52;100.00;97729.63;5032401;28;20238;-89
2023/05/10 07:23:54;;;;;;;2.70;1.30;;;;;;;15.56;100.00;97736.34;5031160;28;20222;-88
2023/05/10 07:26:21;;;;;;;1.40;1.30;;;;;;;15.63;100.00;97748.09;5032486;28;20215;-89
2023/05/10 07:28:49;;;;;;;1.67;1.40;;;;;;;15.64;100.00;97744.47;5032610;28;20207;-90
2023/05/10 07:31:16;;;;;;;1.60;1.50;;;;;;;15.72;100.00;97741.88;5032281;28;20240;-89
2023/05/10 07:33:42;;;;;;;1.63;1.30;;;;;;;15.79;100.00;97749.16;5032170;28;20583;-90
2023/05/10 07:36:09;;;;;;;2.30;1.70;;;;;;;15.94;100.00;97750.31;5032352;28;20341;-89
2023/05/10 07:38:35;;;;;;;1.30;1.20;;;;;;;16.03;100.00;97746.78;5032388;28;20237;-90
2023/05/10 07:41:02;;;;;;;1.70;1.40;;;;;;;16.04;100.00;97745.78;5032139;28;20274;-89
2023/05/10 07:43:28;;;;;;;1.67;1.00;;;;;;;16.02;100.00;97751.25;5032447;28;20247;-89
2023/05/10 07:45:57;;;;;;;2.90;1.00;;;;;;;15.91;100.00;97739.13;5031843;28;20720;-90
2023/05/10 07:48:23;;;;;;;0.80;0.80;;;;;;;15.94;100.00;97747.66;5032163;28;20211;-90
2023/05/10 07:50:50;;;;;;;1.80;0.90;;;;;;;16.08;100.00;97754.34;5032236;28;20218;-90
2023/05/10 07:53:18;;;;;;;1.30;1.07;;;;;;;16.16;100.00;97753.41;5032264;28;20247;-90
2023/05/10 07:55:45;;;;;;;0.90;0.90;;;;;;;16.26;100.00;97756.88;5032766;28;20212;-90
2023/05/10 07:58:11;;;;;;;1.37;1.20;;;;;;;16.34;100.00;97751.63;5032038;28;20236;-90
2023/05/10 08:00:39;;;;;;;1.17;0.93;;;;;;;16.25;100.00;97747.22;5031541;28;20528;-90
2023/05/10 08:03:07;;;;;;;0.97;0.90;;;;;;;16.04;98.38;97743.13;5031142;28;20332;-90
2023/05/10 08:05:35;;;;;;;2.60;0.90;;;;;;;16.00;100.00;97756.91;5031737;28;20583;-89
2023/05/10 08:08:01;;;;;;;1.63;0.97;;;;;;;16.07;100.00;97758.81;5032084;28;20208;-89
2023/05/10 08:10:28;;;;;;;0.90;0.90;;;;;;;16.02;100.00;97751.25;5031118;28;20215;-89
2023/05/10 08:12:54;;;;;;;0.80;0.80;;;;;;;16.10;100.00;97762.00;5031325;28;20224;-89
2023/05/10 08:15:21;;;;;;;2.40;0.80;;;;;;;16.03;100.00;97750.28;5031736;28;20208;-90
2023/05/10 08:17:47;;;;;;;1.10;0.90;;;;;;;15.82;98.15;97753.34;5032027;28;20239;-89
2023/05/10 08:20:17;;;;;;;0.80;0.80;;;;;;;15.82;100.00;97758.69;5031382;28;20309;-89
2023/05/10 08:22:43;;;;;;;1.13;0.90;;;;;;;15.84;100.00;97762.03;5031561;28;20227;-89
2023/05/10 08:25:10;;;;;;;1.27;0.90;;;;;;;15.79;100.00;97769.63;5031807;28;20583;-89
2023/05/10 08:27:36;;;;;;;1.97;1.00;;;;;;;15.79;100.00;97769.63;5031843;28;20219;-90
2023/05/10 08:30:03;;;;;;;0.93;0.70;;;;;;;15.82;100.00;97772.00;5031356;28;20480;-92
2023/05/10 08:32:30;;;;;;;0.70;0.70;;;;;;;15.84;99.99;97768.22;5032839;28;20654;-93
2023/05/10 08:34:57;;;;;;;0.60;0.60;;;;;;;15.86;99.09;97765.38;5032647;28;20270;-92
2023/05/10 08:37:25;;;;;;;1.87;0.80;;;;;;;15.92;98.79;97762.97;5032490;28;20302;-91
2023/05/10 08:39:52;;;;;;;1.07;0.60;;;;;;;15.91;97.61;97768.44;5031948;28;20302;-92
2023/05/10 08:42:22;;;;;;;0.90;0.70;;;;;;;15.95;96.21;97756.50;5032091;28;20223;-94
2023/05/10 08:44:54;;;;;;;0.70;0.70;;;;;;;16.00;96.19;97767.56;5032385;28;20203;-91
2023/05/10 08:47:22;;;;;;;1.30;0.60;;;;;;;16.05;94.42;97766.13;5032440;28;20216;-87
2023/05/10 08:49:50;;;;;;;0.70;0.70;;;;;;;16.08;94.63;97765.81;5031248;28;20441;-89
2023/05/10 08:52:18;;;;;;;1.07;0.60;;;;;;;16.07;94.05;97758.00;5032276;28;20560;-89
2023/05/10 08:54:46;;;;;;;0.60;0.60;;;;;;;16.20;94.69;97762.81;5032077;28;20215;-88
2023/05/10 08:57:12;;;;;;;0.70;0.60;;;;;;;16.34;93.68;97767.63;5031185;28;20211;-89
2023/05/10 08:59:39;;;;;;;0.70;0.53;;;;;;;16.48;93.22;97768.97;5031800;28;20238;-88
2023/05/10 09:02:07;;;;;;;0.60;0.60;;;;;;;16.67;93.49;97769.69;5060025;22;20253;-76
2023/05/10 09:04:33;;;;;;;0.83;0.60;;;;;;;16.79;92.64;97763.13;5071273;28;20222;-76
2023/05/10 09:07:01;;;;;;;0.63;0.63;;;;;;;16.89;87.70;97758.53;5071293;28;20210;-76
2023/05/10 09:09:28;;;;;;;0.80;0.60;;;;;;;17.03;86.35;97754.47;5070796;28;20230;-76
2023/05/10 09:11:56;;;;;;;0.97;0.60;;;;;;;17.16;85.92;97755.75;5071075;28;20235;-76
2023/05/10 09:14:24;;;;;;;4.50;0.60;;;;;;;17.32;85.54;97763.84;5068836;28;20214;-76
2023/05/10 09:16:51;;;;;;;0.80;0.60;;;;;;;17.43;81.75;97746.78;5070624;28;20279;-76
2023/05/10 09:19:18;;;;;;;0.80;0.47;;;;;;;17.49;83.42;97759.53;5069964;28;20238;-77
2023/05/10 09:21:44;;;;;;;0.50;0.50;;;;;;;17.54;79.95;97744.69;5070068;28;20227;-76
2023/05/10 09:24:11;;;;;;;0.77;0.50;;;;;;;17.54;81.17;97760.72;5069826;28;20214;-77
2023/05/10 09:26:47;;;;;;;0.50;0.50;;;;;;;17.51;79.76;97755.69;5069879;28;20697;-76
2023/05/10 09:29:15;;;;;;;1.27;0.50;;;;;;;17.53;80.81;97768.88;5070206;28;20276;-77
2023/05/10 09:31:47;;;;;;;1.80;0.67;;;;;;;17.59;80.94;97766.44;5070038;28;20227;-77
2023/05/10 09:34:17;;;;;;;1.20;0.60;;;;;;;17.70;78.95;97757.28;5069839;28;20208;-77
2023/05/10 09:36:55;;;;;;;0.97;0.73;;;;;;;17.79;80.45;97767.03;5069981;28;20639;-77
2023/05/10 09:39:21;;;;;;;0.50;0.50;;;;;;;17.92;78.42;97754.06;5069965;28;20238;-79
2023/05/10 09:41:48;;;;;;;1.03;0.53;;;;;;;17.90;75.74;97745.34;5070289;28;20227;-77
2023/05/10 09:44:20;;;;;;;0.70;0.60;;;;;;;17.83;76.78;97745.16;5069740;28;20211;-77
2023/05/10 09:46:51;;;;;;;1.70;0.60;;;;;;;18.04;77.52;97758.13;5070354;28;20211;-77
2023/05/10 09:49:17;;;;;;;1.00;0.60;;;;;;;17.92;72.26;97730.00;5069640;28;20238;-77
2023/05/10 09:51:44;;;;;;;0.60;0.60;;;;;;;17.85;77.41;97766.41;5069953;28;20233;-76
2023/05/10 09:54:11;;;;;;;2.40;0.90;;;;;;;17.88;78.19;97772.28;5069686;28;20218;-77
2023/05/10 09:56:40;;;;;;;0.50;0.50;;;;;;;18.05;76.96;97760.63;5070432;28;20693;-77
2023/05/10 09:59:08;;;;;;;0.50;0.50;;;;;;;18.11;74.79;97757.31;5070716;28;20231;-76
2023/05/10 10:01:36;;;;;;;1.03;0.60;;;;;;;17.98;75.46;97753.44;5070400;28;20231;-77
2023/05/10 10:04:05;;;;;;;0.70;0.60;;;;;;;17.77;78.36;97767.19;5070752;28;20215;-76
2023/05/10 10:06:36;;;;;;;0.93;0.57;;;;;;;17.60;80.51;97781.47;5070861;28;20204;-76
2023/05/10 10:09:03;;;;;;;2.30;0.57;;;;;;;17.46;82.13;97794.56;5072129;28;20226;-76
2023/05/10 10:11:29;;;;;;;0.70;0.67;;;;;;;17.42;82.60;97794.03;5073552;28;20246;-76
2023/05/10 10:13:56;;;;;;;0.60;0.60;;;;;;;17.37;83.25;97798.16;5071758;28;20212;-76
2023/05/10 10:16:23;;;;;;;0.80;0.60;;;;;;;17.43;84.87;97800.22;5071577;28;20207;-76
2023/05/10 10:18:51;;;;;;;1.47;0.80;;;;;;;17.39;82.57;97788.16;5071389;28;20310;-76
2023/05/10 10:21:18;;;;;;;1.23;0.70;;;;;;;17.43;81.84;97789.53;5073296;28;20203;-76
2023/05/10 10:23:45;;;;;;;0.60;0.60;;;;;;;17.50;83.00;97796.75;5073915;28;20242;-75
2023/05/10 10:26:12;;;;;;;0.70;0.57;;;;;;;17.41;79.03;97770.97;5072120;28;20208;-76
2023/05/10 10:28:49;;;;;;;1.40;0.80;;;;;;;17.36;78.39;97767.91;5071202;28;20207;-75
2023/05/10 10:31:24;;;;;;;1.13;0.70;;;;;;;17.35;78.09;97757.38;5068138;28;20894;-76
2023/05/10 10:34:00;;;;;;;0.80;0.73;;;;;;;17.29;78.05;97766.84;5071686;28;20203;-75
2023/05/10 10:36:27;;;;;;;0.70;0.70;;;;;;;17.40;78.37;97763.97;5073150;28;20575;-75
2023/05/10 10:39:00;;;;;;;1.80;0.80;;;;;;;17.49;80.18;97767.53;5072760;28;20234;-75
2023/05/10 10:41:32;;;;;;;0.90;0.53;;;;;;;17.68;80.09;97773.47;5072210;28;20208;-75
2023/05/10 10:44:27;;;;;;;0.60;0.60;;;;;;;17.62;76.86;97759.94;5072923;28;20214;-76
2023/05/10 10:47:08;;;;;;;0.70;0.60;;;;;;;17.72;74.36;97755.28;5072863;28;20313;-75
2023/05/10 10:49:42;;;;;;;0.73;0.70;;;;;;;17.73;74.98;97760.47;5072470;28;20207;-76
2023/05/10 10:52:16;;;;;;;0.50;0.50;;;;;;;17.87;74.19;97762.53;5072304;28;20731;-75
2023/05/10 10:54:51;;;;;;;0.50;0.40;;;;;;;18.05;74.69;97760.63;5072907;28;20238;-75
2023/05/10 10:57:19;;;;;;;0.63;0.63;;;;;;;18.12;74.43;97763.50;5072967;28;20214;-75
2023/05/10 10:59:46;;;;;;;0.60;0.60;;;;;;;18.16;72.42;97757.66;5072384;28;20228;-76
2023/05/10 11:02:33;;;;;;;1.13;0.50;;;;;;;18.31;72.99;97758.75;5073216;28;20242;-77
2023/05/10 11:05:26;;;;;;;2.30;1.50;;;;;;;18.39;73.56;97758.78;5073387;28;20265;-74
2023/05/10 11:07:53;;;;;;;0.60;0.50;;;;;;;18.29;72.16;97763.38;5073416;28;20212;-75
2023/05/10 11:10:20;;;;;;;2.83;0.70;;;;;;;18.13;70.91;97751.81;5072985;28;20253;-74
2023/05/10 11:12:52;;;;;;;1.13;0.70;;;;;;;18.29;71.10;97763.38;5073357;28;20232;-73
2023/05/10 11:15:20;;;;;;;1.17;0.60;;;;;;;18.34;71.10;97761.09;5073553;28;20227;-74
2023/05/10 11:17:51;;;;;;;1.50;0.70;;;;;;;18.29;68.26;97747.34;5073018;28;20211;-76
2023/05/10 11:20:22;;;;;;;1.13;0.60;;;;;;;18.46;70.27;97759.78;5071820;28;20231;-76
2023/05/10 11:22:52;;;;;;;1.93;0.97;;;;;;;18.42;67.00;97742.38;5072936;28;20231;-74
2023/05/10 11:25:19;;;;;;;1.70;0.70;;;;;;;18.63;71.65;97761.50;5072860;28;20215;-73
2023/05/10 11:27:48;;;;;;;1.50;0.63;;;;;;;18.83;71.28;97756.69;5072000;28;20584;-75
2023/05/10 11:30:15;;;;;;;0.67;0.60;;;;;;;18.99;68.21;97740.59;5070545;28;20227;-74
2023/05/10 11:32:42;;;;;;;1.93;0.70;;;;;;;18.63;66.38;97723.19;5069888;28;20757;-75
2023/05/10 11:35:09;;;;;;;1.20;0.70;;;;;;;18.74;67.05;97736.25;5069793;28;20219;-75